メインページ
METAR-TAF:

METAR-TAF

空港 :

ポートオブスペイン, Trinidad, トリニダード・トバゴ

緯度: 10-37N, 経度: 061-21W, 海抜: 12m

現時点の気象観測

当レポートは39分前の10:00(UTC)に作成
の風 3kt
気温 25°C
湿度 94%
気圧 1009 hPa
視程10km以上
高度1500ftの雲はほとんどない
近辺でにわか雨

METAR: TTPP 191000Z 10003KT 9999 VCSH FEW015 25/24 Q1009 NOSIG RMK VCSH NE

時間: 06:39 (10:39 UTC)

予報

当レポートは6時間39分前の04:00(UTC)に作成
予報は19日の 06時(UTC)から 20日の 06時(UTC)まで有効
の風 kt
視程10km以上
高度1600ftの雲はほとんどない
19日の 12時(UTC)から 19日の 14時(UTC)まで徐々に
東/南東の風 12kt
高度2000ftの雲は散在している
確率 30% :
19日の 15時(UTC)から 19日の 21時(UTC)まで一時的に
視程: 7000m
高度1200ftの雲はほとんどない, 積乱雲.
高度1800ftの雲は散在している
にわか雨
19日の 23時(UTC)から 20日の 02時(UTC)まで徐々に
の風 5kt
高度1600ftの雲は散在している

TAF: TTPP 190400Z 1906/2006 00000KT 9999 FEW016 BECMG 1912/1914 11012KT SCT020 PROB30 TEMPO 1915/1921 7000 SHRA FEW012CB SCT018 BECMG 1923/2002 10005KT SCT016

4,000以上の空港の気象観測と天気予報(METAR報とTAF報)

利用可能な観測所は地図上に黄色い丸と赤い丸で示す。

丸の上にカーソルを重ねると観測所名を参照できる。

次にクリックすると気象観測と天気予報を参照できる。

マップの切り替え:黒色「×」印の緑ボタンをクリックして拡大、「-」印の緑ボタンをクリックして縮小、緑色の三角印をクリックして隣りの地図に切り替え


METAR-TAF: